Grantsville, MD (21536)

1:11 PM EDT on August 30, 2015 (GMT -0400)
The Highlands | | Change Station
CLOSE
Current Station
Personal Weather Station
Location: Grantsville, MD
Elevation: 2526 ft
Nearby Weather Stations

Elev 2526 ft 39.72 °N, 79.07 °W | Updated 5 minutes ago

Partly Cloudy
Partly Cloudy
77.7 °F
Feels Like 79 °F
N
3.2
Wind Variable Wind from South

Today
High -- | Low -- °F
--% Chance of Precip.
Yesterday
High -- | Low -- °F
Precip. -- in
6:42 AM 7:51 PM
Full, 99% visible
Pressure 30.24 in
Visibility 10.0 miles
Clouds Scattered Clouds 2400 ft
Scattered Clouds 3100 ft
Heat Index 79 °F
Dew Point 64 °F
Humidity 62%
Rainfall 0.00 in
Snow Depth Not available.
UV 8 out of 12
Pollen 9.40 out of 12
Air Quality Not available.
Flu Activity Not available.
METAR K2G4 301650Z AUTO 22006KT 10SM SCT024 SCT031 23/16 A3024 RMK AO1
Pressure 30.24 in
Visibility 10.0 miles
Clouds Scattered Clouds 2400 ft
Scattered Clouds 3100 ft
Heat Index 79 °F
Dew Point 64 °F
Humidity 62%
Rainfall 0.00 in
Snow Depth Not available.
UV 8 out of 12
Pollen 9.40 out of 12
Air Quality Not available.
Flu Activity Not available.
METAR K2G4 301650Z AUTO 22006KT 10SM SCT024 SCT031 23/16 A3024 RMK AO1

10-Day Weather Forecast

×

Almanac

Astronomy

Aug. 30, 2015 Rise Set
Actual Time
Civil Twilight
Nautical Twilight
Astronomical Twilight
Moon
Length of Visible Light
Length of Day
Tomorrow will be .
, % of the Moon is Illuminated

Today's Extremes

State Highs State Lows

Community

WunderPhotos

Upload Photos

1,851,014 photos uploaded!

WunderBlogs® & News

Nearby

Air Quality

  Air Quality AQ Index Pollutant
Not available.

Snow Depth

Station Depth Elevation

Earthquake Activity

City Distance Mag. Time & Date
Minimum magnitude displayed is 2.5.

Coastal Water Temperatures

Place Temperature

Stations

Nearby Weather Stations

Station Location Temp. Windchill Dew Point Humidity Wind Precip. Elev Updated Type